Flight Track Log - Related Links

Times and Time Zones

All times are in EDT time to prevent confusion due to time zone crossing. See the ASH3726 flight status page for this flight to view local times or setup timezone preferences in your user account.

Time Position Orientation Groundspeed Altitude Reporting Facility
EDT Latitude Longitude Course Direction KTS MPH feet Rate Location/Type
Sat 05:42:40 PM 42.0000 -87.8833 14° North 142 163 1,200  Level Chicago TRACON
Sat 05:43:40 PM 42.0500 -87.8667 14° North 202 232 2,600 1,611 Climbing Chicago TRACON
Sat 05:45:00 PM 42.2701 -87.8033 10° North  Level FlightAware Approximate
Sat 05:45:09 PM 42.1461 -87.8400 12° North 257 296 5,200  Level Chicago Center
Sat 05:46:00 PM 42.3718 -87.7725 20° North  Level FlightAware Approximate
Sat 05:46:11 PM 42.2214 -87.8189 12° North 276 318 8,000  Level Chicago Center
Sat 05:47:00 PM 42.4727 -87.7388 North  Level FlightAware Approximate
Sat 05:47:13 PM 42.3017 -87.8339 352° North 292 336 10,300  Level Chicago Center
Sat 05:48:00 PM 42.5651 -87.7172 14° North  Level FlightAware Approximate
Sat 05:48:15 PM 42.3958 -87.8300 North 313 360 12,400  Level Chicago Center
Sat 05:49:17 PM 42.4897 -87.8000 13° North 342 394 14,600 2,081 Climbing Chicago Center
Sat 05:50:19 PM 42.5847 -87.7686 14° North 350 403 16,700 1,839 Climbing Chicago Center
Sat 05:51:21 PM 42.6839 -87.7375 13° North 362 417 18,400 1,839 Climbing Chicago Center
Sat 05:52:23 PM 42.7619 -87.6261 46° Northeast 368 423 20,500 1,839 Climbing Chicago Center
Sat 05:53:25 PM 42.7969 -87.4950 70° East 370 426 22,200 1,210 Climbing Chicago Center
Sat 05:54:27 PM 42.8289 -87.3722 70° East 382 440 23,000 387 Climbing Chicago Center
Sat 05:55:29 PM 42.8753 -87.1942 70° East 413 475 23,000  Level Chicago Center
Sat 05:56:31 PM 42.9150 -87.0400 71° East 428 493 23,000  Level Chicago Center
Sat 05:57:33 PM 42.9475 -86.8853 74° East 427 491 23,000  Level Chicago Center
Sat 05:58:35 PM 42.9764 -86.7292 76° East 426 490 23,000  Level Chicago Center
Sat 05:59:39 PM 43.0069 -86.5700 75° East 432 497 23,000  Level Chicago Center
Sat 06:00:41 PM 43.0356 -86.4133 76° East 427 491 23,000  Level Chicago Center
Sat 06:01:43 PM 43.0708 -86.2233 76° East 428 493 23,000  Level Chicago Center
Sat 06:02:45 PM 43.1008 -86.0606 76° East 432 497 23,000  Level Chicago Center
Sat 06:03:47 PM 43.1306 -85.8922 76° East 435 501 23,000  Level Chicago Center
Sat 06:04:49 PM 43.1594 -85.7311 76° East 435 501 23,000  Level Chicago Center
Sat 06:05:51 PM 43.1869 -85.5717 77° East 431 496 23,000  Level Chicago Center
Sat 06:06:53 PM 43.2153 -85.4131 76° East 430 495 23,000  Level Chicago Center
Sat 06:07:55 PM 43.2425 -85.2531 77° East 431 496 23,000  Level Chicago Center
Sat 06:08:57 PM 43.2239 -85.0917 99° East 427 491 23,000  Level Chicago Center
Sat 06:09:59 PM 43.1981 -84.9511 104° East 391 450 23,000 -677 Level Chicago Center
Sat 06:11:01 PM 43.1706 -84.8008 104° East 341 392 21,600 -1,171 Descending Chicago Center
Sat 06:12:02 PM 43.1464 -84.6758 105° East 339 390 20,600 -1,024 Descending Chicago Center
Sat 06:13:04 PM 43.1231 -84.5497 104° East 342 394 19,500 -1,065 Descending Chicago Center
Sat 06:14:06 PM 43.0992 -84.4231 104° East 343 395 18,400 -1,016 Descending Chicago Center
Sat 06:15:08 PM 43.0633 -84.2947 111° Southeast 331 381 17,400 -984 Descending Cleveland Center
Sat 06:16:08 PM 43.0186 -84.1897 120° Southeast 320 368 16,400 -1,000 Descending Cleveland Center
Sat 06:17:08 PM 42.9781 -84.0881 119° Southeast 320 368 15,400 -1,000 Descending Cleveland Center
Sat 06:18:08 PM 42.9353 -83.9836 119° Southeast 314 361 14,400 -1,000 Descending Cleveland Center
Sat 06:19:08 PM 42.8925 -83.8792 119° Southeast 314 361 13,400 -1,000 Descending Cleveland Center
Sat 06:20:08 PM 42.8536 -83.7808 118° Southeast 304 350 12,400 -933 Descending Cleveland Center
Sat 06:20:38 PM 42.8297 -83.7372 127° Southeast 285 328 12,000 -700 Descending Cleveland Center
Sat 06:21:08 PM 42.7969 -83.7156 154° Southeast 270 311 11,700 -885 Descending Cleveland Center
Sat 06:21:39 PM 42.7642 -83.6942 154° Southeast 249 287 11,100 -1,174 Descending Cleveland Center
Sat 06:22:40 PM 42.7497 -83.6058 103° East 243 280 9,900 -1,024 Descending Cleveland Center
Sat 06:23:42 PM 42.7586 -83.5100 83° East 249 287 9,000 -443 Descending Cleveland Center
Sat 06:24:42 PM 42.7050 -83.4850 161° South 250 288 9,000  Level Cleveland Center
Sat 06:25:44 PM 42.6475 -83.5303 210° Southwest 230 265 9,000 -98 Level Cleveland Center
Sat 06:26:45 PM 42.5964 -83.5758 213° Southwest 217 250 8,800 -590 Descending Cleveland Center
Sat 06:27:46 PM 42.5422 -83.5733 178° South 215 247 7,800 -1,131 Descending Cleveland Center
Sat 06:28:47 PM 42.5297 -83.4967 102° East 208 239 6,500 -837 Descending Cleveland Center
Sat 06:29:55 PM 42.5147 -83.4228 105° East 202 232 6,000 -293 Descending Cleveland Center
Sat 06:30:50 PM 42.4956 -83.3542 111° Southeast 200 230 5,900 -310 Descending Cleveland Center
Sat 06:31:51 PM 42.4744 -83.2828 112° Southeast 188 216 5,400 -443 Descending Cleveland Center
Sat 06:32:52 PM 42.4333 -83.2503 150° Southeast 199 229 5,000 -683 Descending Cleveland Center
Sat 06:33:54 PM 42.3811 -83.2592 187° South 191 220 4,000 -1,082 Descending Cleveland Center
Sat 06:34:54 PM 42.3306 -83.2794 197° South 181 208 2,800 -984 Descending Cleveland Center
Sat 06:35:56 PM 42.2883 -83.3086 207° Southwest 150 173 2,000 -769 Descending Cleveland Center
Sat 06:36:51 PM 42.2564 -83.3325 209° Southwest 140 161 1,300 -764 Descending Cleveland Center

Login

Don't have an account? Register now (free) for customized features, flight alerts, and more!